createdAt,value
2023-04-10T00:00:31.467Z,13.25
2023-04-10T00:03:04.732Z,13.26
2023-04-10T00:05:37.809Z,13.25
2023-04-10T00:08:12.133Z,13.23
2023-04-10T00:10:44.890Z,13.23
2023-04-10T00:13:19.016Z,13.26
2023-04-10T00:15:52.020Z,13.26
2023-04-10T00:18:24.734Z,13.21
2023-04-10T00:20:57.722Z,13.22
2023-04-10T00:23:34.607Z,13.21
2023-04-10T00:26:07.405Z,13.23
2023-04-10T00:28:41.652Z,13.30
2023-04-10T00:31:14.629Z,13.22
2023-04-10T00:33:47.536Z,13.21
2023-04-10T00:36:20.716Z,13.21
2023-04-10T00:38:53.691Z,13.20
2023-04-10T00:41:26.688Z,13.11
2023-04-10T00:44:01.116Z,13.12
2023-04-10T00:46:35.441Z,13.13
2023-04-10T00:49:09.501Z,13.16
2023-04-10T00:51:43.719Z,13.10
2023-04-10T00:54:16.818Z,13.08
2023-04-10T00:56:51.163Z,13.07
2023-04-10T00:59:25.375Z,13.04
2023-04-10T01:01:58.895Z,13.02
2023-04-10T01:04:33.649Z,12.98
2023-04-10T01:07:12.499Z,13.03
2023-04-10T01:09:49.993Z,12.96
2023-04-10T01:12:38.204Z,12.96
2023-04-10T01:15:14.245Z,12.97
2023-04-10T01:17:51.863Z,13.03
2023-04-10T01:20:26.267Z,12.93
2023-04-10T01:23:22.694Z,12.93
2023-04-10T01:26:00.108Z,12.97
2023-04-10T01:28:54.597Z,12.93
2023-04-10T01:31:35.722Z,12.94
2023-04-10T01:34:11.406Z,12.88
2023-04-10T01:36:56.279Z,12.90
2023-04-10T01:39:31.472Z,12.85
2023-04-10T01:42:08.410Z,12.86
2023-04-10T01:44:49.851Z,12.83
2023-04-10T01:47:25.371Z,12.80
2023-04-10T01:49:59.876Z,12.83
2023-04-10T01:52:34.704Z,12.85
2023-04-10T01:55:29.135Z,12.78
2023-04-10T01:58:08.313Z,12.75
2023-04-10T02:00:44.219Z,12.69
2023-04-10T02:03:18.965Z,12.72
2023-04-10T02:06:04.715Z,12.64
2023-04-10T02:08:41.615Z,12.62
2023-04-10T02:11:26.436Z,12.68
2023-04-10T02:14:02.324Z,12.71
2023-04-10T02:16:40.763Z,12.72
2023-04-10T02:19:14.120Z,12.63
2023-04-10T02:21:51.321Z,12.60
2023-04-10T02:24:24.672Z,12.62
2023-04-10T02:26:57.926Z,12.59
2023-04-10T02:29:30.790Z,12.58
2023-04-10T02:32:05.112Z,12.59
2023-04-10T02:34:37.904Z,12.60
2023-04-10T02:37:12.208Z,12.53
2023-04-10T02:39:45.148Z,12.57
2023-04-10T02:42:20.925Z,12.54
2023-04-10T02:44:54.075Z,12.57
2023-04-10T02:47:28.668Z,12.54
2023-04-10T02:50:01.518Z,12.56
2023-04-10T02:52:39.153Z,12.58
2023-04-10T02:55:12.375Z,12.57
2023-04-10T02:57:47.245Z,12.55
2023-04-10T03:00:20.405Z,12.56
2023-04-10T03:03:26.601Z,12.53
2023-04-10T03:06:01.605Z,12.56
2023-04-10T03:08:40.564Z,12.51
2023-04-10T03:11:13.394Z,12.51
2023-04-10T03:13:46.397Z,12.53
2023-04-10T03:16:19.260Z,12.51
2023-04-10T03:18:54.249Z,12.50
2023-04-10T03:21:27.670Z,12.50
2023-04-10T03:24:01.207Z,12.47
2023-04-10T03:26:34.002Z,12.47
2023-04-10T03:29:06.843Z,12.47
2023-04-10T03:31:40.422Z,12.40
2023-04-10T03:34:14.790Z,12.41
2023-04-10T03:36:48.015Z,12.41
2023-04-10T03:39:21.589Z,12.38
2023-04-10T03:41:54.302Z,12.33
2023-04-10T03:44:30.385Z,12.33
2023-04-10T03:47:05.970Z,12.32
2023-04-10T03:49:40.146Z,12.32
2023-04-10T03:52:13.297Z,12.33
2023-04-10T03:54:46.496Z,12.31
2023-04-10T03:57:29.410Z,12.30
2023-04-10T04:00:09.693Z,12.29
2023-04-10T04:02:55.548Z,12.31
2023-04-10T04:05:53.215Z,12.32
2023-04-10T04:08:31.811Z,12.28
2023-04-10T04:11:23.684Z,12.24
2023-04-10T04:14:12.778Z,12.22
2023-04-10T04:17:10.608Z,12.20
2023-04-10T04:20:10.541Z,12.27
2023-04-10T04:22:50.800Z,12.20
2023-04-10T04:25:49.728Z,12.23
2023-04-10T04:28:43.788Z,12.20
2023-04-10T04:31:35.602Z,12.20
2023-04-10T04:34:37.555Z,12.23
2023-04-10T04:37:28.427Z,12.25
2023-04-10T04:40:22.808Z,12.18
2023-04-10T04:43:22.325Z,12.24
2023-04-10T04:46:25.153Z,12.26
2023-04-10T04:49:18.077Z,12.23
2023-04-10T04:52:11.205Z,12.25
2023-04-10T04:55:07.668Z,12.19
2023-04-10T04:58:02.829Z,12.19
2023-04-10T05:01:08.994Z,12.24
2023-04-10T05:04:00.858Z,12.19
2023-04-10T05:06:51.943Z,12.27
2023-04-10T05:09:39.499Z,12.25
2023-04-10T05:12:27.360Z,12.22
2023-04-10T05:15:03.178Z,12.26
2023-04-10T05:18:14.168Z,12.33
2023-04-10T05:21:08.424Z,12.20
2023-04-10T05:24:07.169Z,12.25
2023-04-10T05:26:58.397Z,12.25
2023-04-10T05:29:48.986Z,12.24
2023-04-10T05:32:49.148Z,12.25
2023-04-10T05:35:29.941Z,12.22
2023-04-10T05:38:09.418Z,12.31
2023-04-10T05:40:49.067Z,12.33
2023-04-10T05:43:51.142Z,12.33
2023-04-10T05:46:40.309Z,12.33
2023-04-10T05:49:53.539Z,12.31
2023-04-10T05:52:46.826Z,12.32
2023-04-10T05:55:38.381Z,12.37
2023-04-10T05:58:45.934Z,12.35
2023-04-10T06:01:47.845Z,12.36
2023-04-10T06:04:22.316Z,12.38
2023-04-10T06:07:00.223Z,12.34
2023-04-10T06:09:33.125Z,12.39
2023-04-10T06:12:07.976Z,12.38
2023-04-10T06:14:42.542Z,12.44
2023-04-10T06:17:15.868Z,12.45
2023-04-10T06:19:48.971Z,12.47
2023-04-10T06:22:25.240Z,12.53
2023-04-10T06:24:58.029Z,12.56
2023-04-10T06:27:30.874Z,12.55
2023-04-10T06:30:04.300Z,12.55
2023-04-10T06:32:36.975Z,12.57
2023-04-10T06:35:10.396Z,12.63
2023-04-10T06:37:44.621Z,12.66
2023-04-10T06:40:17.415Z,12.66
2023-04-10T06:42:50.377Z,12.72
2023-04-10T06:45:43.001Z,12.76
2023-04-10T06:48:16.483Z,12.84
2023-04-10T06:50:49.325Z,12.79
2023-04-10T06:53:23.401Z,12.80
2023-04-10T06:55:56.735Z,12.84
2023-04-10T06:58:29.520Z,12.87
2023-04-10T07:01:04.618Z,12.87
2023-04-10T07:03:38.541Z,12.89
2023-04-10T07:06:12.136Z,12.90
2023-04-10T07:08:46.294Z,12.94
2023-04-10T07:11:19.132Z,12.96
2023-04-10T07:13:54.037Z,13.02
2023-04-10T07:16:27.532Z,13.07
2023-04-10T07:19:00.751Z,13.12
2023-04-10T07:21:34.062Z,13.20
2023-04-10T07:24:08.311Z,13.27
2023-04-10T07:26:41.183Z,13.30
2023-04-10T07:29:16.064Z,13.26
2023-04-10T07:31:49.122Z,13.27
2023-04-10T07:34:22.007Z,13.26
2023-04-10T07:36:54.753Z,13.30
2023-04-10T07:39:28.869Z,13.39
2023-04-10T07:42:01.704Z,13.39
2023-04-10T07:44:34.437Z,13.41
2023-04-10T07:47:07.264Z,13.41
2023-04-10T07:49:46.914Z,13.44
2023-04-10T07:52:20.066Z,13.57
2023-04-10T07:54:54.372Z,13.58
2023-04-10T07:57:27.295Z,13.61
2023-04-10T07:59:59.971Z,13.65
2023-04-10T08:02:33.138Z,13.70
2023-04-10T08:05:07.204Z,13.64
2023-04-10T08:07:40.065Z,13.54
2023-04-10T08:10:14.606Z,13.26
2023-04-10T08:12:47.359Z,13.28
2023-04-10T08:15:21.523Z,13.24
2023-04-10T08:17:54.542Z,13.26
2023-04-10T08:20:27.550Z,13.42
2023-04-10T08:23:09.192Z,13.49
2023-04-10T08:25:53.581Z,13.51
2023-04-10T08:28:26.425Z,13.58
2023-04-10T08:30:59.339Z,13.82
2023-04-10T08:33:32.063Z,13.75
2023-04-10T08:36:06.052Z,14.04
2023-04-10T08:38:38.972Z,13.98
2023-04-10T08:41:13.653Z,14.03
2023-04-10T08:43:47.375Z,13.73
2023-04-10T08:46:20.765Z,13.91
2023-04-10T08:48:59.120Z,14.04
2023-04-10T08:51:37.523Z,14.00
2023-04-10T08:54:19.682Z,13.95
2023-04-10T08:56:56.889Z,13.94
2023-04-10T08:59:30.827Z,13.97
2023-04-10T09:02:03.982Z,14.21
2023-04-10T09:04:37.894Z,14.15
2023-04-10T09:07:10.875Z,14.19
2023-04-10T09:09:43.475Z,13.99
2023-04-10T09:12:17.717Z,14.17
2023-04-10T09:14:53.399Z,14.15
2023-04-10T09:17:26.244Z,14.09
2023-04-10T09:19:58.945Z,14.10
2023-04-10T09:22:34.471Z,14.18
2023-04-10T09:25:28.078Z,14.20
2023-04-10T09:28:06.359Z,14.33
2023-04-10T09:30:41.335Z,14.53
2023-04-10T09:33:23.515Z,14.48
2023-04-10T09:36:00.045Z,14.56
2023-04-10T09:38:32.924Z,14.46
2023-04-10T09:41:09.606Z,14.46
2023-04-10T09:43:46.026Z,14.54
2023-04-10T09:46:28.705Z,14.43
2023-04-10T09:49:05.055Z,14.72
2023-04-10T09:51:39.541Z,14.72
2023-04-10T09:54:12.775Z,14.77
2023-04-10T09:56:47.117Z,14.76
2023-04-10T09:59:21.404Z,14.86
2023-04-10T10:01:54.273Z,15.00
2023-04-10T10:04:28.275Z,15.36
2023-04-10T10:07:01.711Z,15.35
2023-04-10T10:09:36.419Z,15.31
2023-04-10T10:12:11.106Z,15.53
2023-04-10T10:14:58.839Z,16.06
2023-04-10T10:17:42.406Z,16.36
2023-04-10T10:20:19.504Z,16.56
2023-04-10T10:22:54.102Z,16.65
2023-04-10T10:25:27.681Z,16.75
2023-04-10T10:28:03.684Z,16.52
2023-04-10T10:30:39.005Z,16.64
2023-04-10T10:33:13.742Z,16.76
2023-04-10T10:35:47.769Z,16.85
2023-04-10T10:38:21.480Z,17.11
2023-04-10T10:41:03.091Z,17.17
2023-04-10T10:43:48.086Z,17.15
2023-04-10T10:46:27.844Z,17.22
2023-04-10T10:49:02.173Z,17.43
2023-04-10T10:51:44.632Z,17.50
2023-04-10T10:54:31.182Z,17.55
2023-04-10T10:57:06.656Z,17.60
2023-04-10T10:59:58.035Z,17.65
2023-04-10T11:02:32.260Z,17.72
2023-04-10T11:05:05.511Z,17.67
2023-04-10T11:08:08.953Z,17.88
2023-04-10T11:11:00.866Z,17.87
2023-04-10T11:13:34.116Z,17.86
2023-04-10T11:16:10.405Z,17.87
2023-04-10T11:19:13.839Z,17.98
2023-04-10T11:22:05.729Z,17.87
2023-04-10T11:24:59.669Z,17.85
2023-04-10T11:27:53.637Z,17.88
2023-04-10T11:30:27.992Z,17.77
2023-04-10T11:33:02.097Z,17.70
2023-04-10T11:35:36.358Z,17.65
2023-04-10T11:38:18.959Z,17.65
2023-04-10T11:41:01.523Z,17.46
2023-04-10T11:43:35.832Z,17.56
2023-04-10T11:46:08.939Z,17.51
2023-04-10T11:48:41.779Z,17.42
2023-04-10T11:51:16.087Z,17.34
2023-04-10T11:53:49.288Z,17.28
2023-04-10T11:56:22.892Z,17.29
2023-04-10T11:58:56.258Z,17.19
2023-04-10T12:01:29.554Z,17.08
2023-04-10T12:04:02.812Z,17.04
2023-04-10T12:06:37.503Z,16.89
2023-04-10T12:09:14.663Z,16.83
2023-04-10T12:11:53.049Z,16.77
2023-04-10T12:14:31.888Z,16.67
2023-04-10T12:17:09.997Z,16.62
2023-04-10T12:19:42.971Z,16.55
2023-04-10T12:22:17.145Z,16.45
2023-04-10T12:24:51.820Z,16.36
2023-04-10T12:27:26.632Z,16.30
2023-04-10T12:30:00.238Z,16.21
2023-04-10T12:32:33.182Z,16.16
2023-04-10T12:35:06.164Z,16.11
2023-04-10T12:37:50.738Z,16.00
2023-04-10T12:40:23.695Z,15.91
2023-04-10T12:42:56.446Z,15.95
2023-04-10T12:45:44.502Z,15.96
2023-04-10T12:48:24.357Z,15.87
2023-04-10T12:50:57.297Z,15.83
2023-04-10T12:53:31.331Z,15.77
2023-04-10T12:56:06.398Z,15.63
2023-04-10T12:58:39.477Z,15.63
2023-04-10T13:01:14.165Z,15.64
2023-04-10T13:03:49.105Z,15.63
2023-04-10T13:06:21.888Z,15.60
2023-04-10T13:08:56.412Z,15.54
2023-04-10T13:11:29.486Z,15.55
2023-04-10T13:14:02.314Z,15.56
2023-04-10T13:16:35.564Z,15.52
2023-04-10T13:19:08.432Z,15.48
2023-04-10T13:21:41.195Z,15.48
2023-04-10T13:24:16.710Z,15.32
2023-04-10T13:26:49.919Z,15.44
2023-04-10T13:29:22.665Z,15.33
2023-04-10T13:31:55.633Z,15.28
2023-04-10T13:34:28.356Z,15.40
2023-04-10T13:37:01.816Z,15.39
2023-04-10T13:39:36.091Z,15.37
2023-04-10T13:42:08.763Z,15.22
2023-04-10T13:44:41.692Z,15.18
2023-04-10T13:47:14.738Z,15.17
2023-04-10T13:49:47.784Z,15.17
2023-04-10T13:52:20.407Z,15.16
2023-04-10T13:54:56.850Z,15.24
2023-04-10T13:57:30.704Z,15.20
2023-04-10T14:00:04.709Z,15.08
2023-04-10T14:02:45.627Z,15.15
2023-04-10T14:05:19.332Z,15.06
2023-04-10T14:07:56.798Z,15.13
2023-04-10T14:10:31.561Z,15.11
2023-04-10T14:13:04.250Z,15.13
2023-04-10T14:15:37.291Z,15.12
2023-04-10T14:18:10.390Z,15.14
2023-04-10T14:20:43.361Z,15.07
2023-04-10T14:23:18.438Z,15.11
2023-04-10T14:25:52.882Z,15.06
2023-04-10T14:28:25.768Z,15.11
2023-04-10T14:30:59.433Z,15.11
2023-04-10T14:33:32.561Z,15.07
2023-04-10T14:36:06.417Z,14.92
2023-04-10T14:38:39.826Z,14.79
2023-04-10T14:41:16.384Z,14.79
2023-04-10T14:43:49.744Z,14.85
2023-04-10T14:46:23.063Z,14.82
2023-04-10T14:48:58.027Z,14.87
2023-04-10T14:51:30.976Z,14.91
2023-04-10T14:54:04.411Z,14.96
2023-04-10T14:56:38.744Z,14.90
2023-04-10T14:59:13.900Z,14.88
2023-04-10T15:01:46.664Z,14.97
2023-04-10T15:04:19.521Z,14.91
2023-04-10T15:06:55.339Z,14.83
2023-04-10T15:09:28.086Z,14.82
2023-04-10T15:12:02.217Z,14.80
2023-04-10T15:14:35.228Z,14.90
2023-04-10T15:17:08.128Z,14.79
2023-04-10T15:19:41.187Z,14.87
2023-04-10T15:22:16.362Z,14.84
2023-04-10T15:24:50.874Z,14.89
2023-04-10T15:27:26.669Z,14.84
2023-04-10T15:29:59.409Z,14.79
2023-04-10T15:32:32.488Z,14.87
2023-04-10T15:35:06.361Z,14.84
2023-04-10T15:37:39.083Z,14.83
2023-04-10T15:40:12.210Z,14.86
2023-04-10T15:42:46.647Z,14.86
2023-04-10T15:45:20.612Z,14.76
2023-04-10T15:47:53.280Z,14.77
2023-04-10T15:50:26.447Z,14.72
2023-04-10T15:52:59.279Z,14.72
2023-04-10T15:55:31.817Z,14.82
2023-04-10T15:58:07.953Z,14.76
2023-04-10T16:00:41.186Z,14.73
2023-04-10T16:03:14.537Z,14.78
2023-04-10T16:05:47.315Z,14.75
2023-04-10T16:08:20.623Z,14.81
2023-04-10T16:10:53.548Z,14.80
2023-04-10T16:13:27.580Z,14.63
2023-04-10T16:16:01.123Z,14.83
2023-04-10T16:18:34.008Z,14.79
2023-04-10T16:21:09.229Z,14.84
2023-04-10T16:23:42.102Z,14.61
2023-04-10T16:26:14.849Z,14.72
2023-04-10T16:28:48.924Z,14.83
2023-04-10T16:31:21.759Z,14.79
2023-04-10T16:33:54.456Z,14.78
2023-04-10T16:36:27.255Z,14.85
2023-04-10T16:39:00.092Z,14.71
2023-04-10T16:41:32.846Z,14.71
2023-04-10T16:44:07.210Z,14.78
2023-04-10T16:46:39.961Z,14.80
2023-04-10T16:49:13.089Z,14.74
2023-04-10T16:51:45.805Z,14.77
2023-04-10T16:54:18.951Z,14.75
2023-04-10T16:56:51.798Z,14.75
2023-04-10T16:59:26.040Z,14.79
2023-04-10T17:01:59.201Z,14.79
2023-04-10T17:04:32.067Z,14.74
2023-04-10T17:07:04.749Z,14.40
2023-04-10T17:09:38.061Z,14.70
2023-04-10T17:12:11.133Z,14.75
2023-04-10T17:14:45.412Z,14.70
2023-04-10T17:17:18.564Z,14.66
2023-04-10T17:19:51.499Z,14.73
2023-04-10T17:22:24.205Z,14.71
2023-04-10T17:24:56.996Z,14.64
2023-04-10T17:27:29.781Z,14.61
2023-04-10T17:30:04.079Z,14.67
2023-04-10T17:32:37.050Z,14.61
2023-04-10T17:35:10.096Z,14.60
2023-04-10T17:37:43.026Z,14.52
2023-04-10T17:40:15.871Z,14.59
2023-04-10T17:42:55.122Z,14.57
2023-04-10T17:45:29.917Z,14.56
2023-04-10T17:48:03.129Z,14.51
2023-04-10T17:50:36.570Z,14.58
2023-04-10T17:53:11.993Z,14.68
2023-04-10T17:55:47.319Z,14.67
2023-04-10T17:58:20.446Z,14.64
2023-04-10T18:00:56.956Z,14.68
2023-04-10T18:03:29.956Z,14.69
2023-04-10T18:06:02.833Z,14.65
2023-04-10T18:08:35.867Z,14.44
2023-04-10T18:11:09.316Z,14.53
2023-04-10T18:13:42.262Z,14.55
2023-04-10T18:16:17.437Z,14.68
2023-04-10T18:18:50.443Z,14.39
2023-04-10T18:21:23.086Z,14.63
2023-04-10T18:23:56.098Z,14.67
2023-04-10T18:26:31.993Z,14.55
2023-04-10T18:29:05.432Z,14.52
2023-04-10T18:31:39.700Z,14.44
2023-04-10T18:34:12.570Z,14.53
2023-04-10T18:36:45.338Z,14.42
2023-04-10T18:39:18.135Z,14.40
2023-04-10T18:41:50.898Z,14.40
2023-04-10T18:44:24.685Z,14.34
2023-04-10T18:47:04.486Z,14.22
2023-04-10T18:49:41.011Z,14.33
2023-04-10T18:52:13.803Z,14.14
2023-04-10T18:54:46.722Z,14.16
2023-04-10T18:57:19.458Z,14.05
2023-04-10T18:59:52.308Z,14.06
2023-04-10T19:02:26.894Z,14.09
2023-04-10T19:05:00.164Z,13.80
2023-04-10T19:07:33.585Z,13.87
2023-04-10T19:10:07.413Z,14.05
2023-04-10T19:12:40.464Z,13.94
2023-04-10T19:15:13.728Z,13.84
2023-04-10T19:17:48.210Z,13.83
2023-04-10T19:20:49.912Z,13.82
2023-04-10T19:23:14.500Z,13.95
2023-04-10T19:25:48.749Z,13.82
2023-04-10T19:28:23.239Z,13.89
2023-04-10T19:31:01.378Z,13.66
2023-04-10T19:33:35.946Z,13.67
2023-04-10T19:36:16.597Z,13.71
2023-04-10T19:38:51.232Z,13.58
2023-04-10T19:41:24.451Z,13.74
2023-04-10T19:43:58.642Z,13.70
2023-04-10T19:46:36.354Z,13.63
2023-04-10T19:49:10.685Z,13.74
2023-04-10T19:51:43.718Z,13.74
2023-04-10T19:54:19.929Z,13.54
2023-04-10T19:56:56.789Z,13.59
2023-04-10T19:59:30.390Z,13.64
2023-04-10T20:02:06.437Z,13.69
2023-04-10T20:04:41.100Z,13.75
2023-04-10T20:07:16.007Z,13.70
2023-04-10T20:09:49.356Z,13.70
2023-04-10T20:12:22.430Z,13.56
2023-04-10T20:14:57.264Z,13.55
2023-04-10T20:17:44.890Z,13.66
2023-04-10T20:20:19.100Z,13.66
2023-04-10T20:22:52.112Z,13.61
2023-04-10T20:25:24.814Z,13.69
2023-04-10T20:27:57.950Z,13.62
2023-04-10T20:30:31.980Z,13.60
2023-04-10T20:33:05.033Z,13.67
2023-04-10T20:35:39.696Z,13.59
2023-04-10T20:38:12.492Z,13.58
2023-04-10T20:40:46.119Z,13.47
2023-04-10T20:43:19.028Z,13.58
2023-04-10T20:45:51.945Z,13.58
2023-04-10T20:48:24.646Z,13.53
2023-04-10T20:50:58.955Z,13.50
2023-04-10T20:53:31.838Z,13.51
2023-04-10T20:56:06.330Z,13.41
2023-04-10T20:58:39.426Z,13.41
2023-04-10T21:01:12.076Z,13.43
2023-04-10T21:03:45.001Z,13.25
2023-04-10T21:06:19.133Z,13.32
2023-04-10T21:08:53.838Z,13.31
2023-04-10T21:11:27.328Z,13.34
2023-04-10T21:14:00.250Z,13.21
2023-04-10T21:16:35.035Z,13.21
2023-04-10T21:19:08.042Z,13.07
2023-04-10T21:21:42.016Z,13.25
2023-04-10T21:24:14.752Z,13.20
2023-04-10T21:26:47.523Z,13.30
2023-04-10T21:29:20.459Z,13.27
2023-04-10T21:31:53.429Z,13.24
2023-04-10T21:34:26.267Z,13.22
2023-04-10T21:37:00.930Z,13.12
2023-04-10T21:39:33.597Z,13.05
2023-04-10T21:42:07.641Z,13.14
2023-04-10T21:44:40.470Z,13.09
2023-04-10T21:47:14.382Z,13.05
2023-04-10T21:49:47.076Z,13.05
2023-04-10T21:52:21.582Z,13.06
2023-04-10T21:55:01.858Z,13.06
2023-04-10T21:57:35.560Z,12.99
2023-04-10T22:00:09.542Z,13.02
2023-04-10T22:02:42.412Z,12.95
2023-04-10T22:05:15.905Z,12.95
2023-04-10T22:07:50.071Z,12.84
2023-04-10T22:10:22.818Z,12.94
2023-04-10T22:12:55.687Z,12.87
2023-04-10T22:30:15.603Z,12.60
2023-04-10T22:35:56.310Z,12.54
2023-04-10T22:38:32.496Z,12.52
2023-04-10T22:41:06.630Z,12.52
2023-04-10T22:43:39.395Z,12.43
2023-04-10T22:46:13.542Z,12.50
2023-04-10T22:48:47.845Z,12.43
2023-04-10T22:51:21.024Z,12.43
2023-04-10T22:53:54.811Z,12.44
2023-04-10T22:56:29.394Z,12.42
2023-04-10T22:59:02.160Z,12.25
2023-04-10T23:01:36.584Z,12.22
2023-04-10T23:04:09.718Z,12.24
2023-04-10T23:06:42.885Z,12.33
2023-04-10T23:09:15.792Z,12.09
2023-04-10T23:11:51.194Z,12.16
2023-04-10T23:14:23.993Z,12.21
2023-04-10T23:16:58.049Z,12.17
2023-04-10T23:19:30.814Z,12.03
2023-04-10T23:22:03.609Z,12.09
2023-04-10T23:24:36.346Z,12.17
2023-04-10T23:27:09.090Z,12.16
2023-04-10T23:29:41.779Z,12.16
2023-04-10T23:32:16.838Z,12.22
2023-04-10T23:34:49.659Z,12.10
2023-04-10T23:37:22.388Z,12.04
2023-04-10T23:39:55.153Z,12.11
2023-04-10T23:42:27.927Z,12.12
2023-04-10T23:45:00.602Z,12.02
2023-04-10T23:47:35.093Z,12.05
2023-04-10T23:50:08.996Z,12.02
2023-04-10T23:52:41.892Z,12.02
2023-04-10T23:55:14.456Z,12.02
2023-04-10T23:57:47.126Z,11.99
